Terminal Aerodrome Forecast
Issued by NWS

Home | Current Version | Previous Version | Text Only | Print | Product List | Glossary Off
Versions: 1 2 3 4 5 6 7 8 9 10 11 12 13 14 15 16 17

595
FTUS43 KUNR 130527
TAFGCC
TAF
KGCC 130527Z 1306/1406 31022G32KT P6SM SCT200
     FM132200 30014KT P6SM SCT100=

USA.gov is the U.S. government's official web portal to all federal, state and local government web resources and services.